Weather at Teco Plaza Heliport

Public forecast

Using degrees Fahrenheit for public forecast. Weather courtesy of forecast.io.

Closest aviation weather report (METAR) to Teco Plaza Heliport

Closest report is Peter O Knight Airport, 2.1 nm (3.9 km) SSE. Retrieved 2020/11/30 10:35 UTC (0 seconds ago):

KTPF 301035Z AUTO 21016KT 10SM BKN017 BKN026 23/21 A2985 RMK AO2

Closest aviation forecast (TAF) to Teco Plaza Heliport

Closest forecast is Tampa International Airport, 4.2 nm (7.7 km) WNW. Retrieved 2020/11/30 06:24 UTC (4 hours ago):

TAF KTPA 300521Z 3006/0112 19010KT P6SM FEW040 BKN250 FM300800 22012KT P6SM VCSH SCT030 BKN100 OVC250 FM301200 28012G19KT P6SM VCTS FEW015CB OVC025 TEMPO 3012/3016 VRB15G25KT 3SM TSRA OVC015CB FM301700 30013G20KT P6SM VCSH SCT025 BKN050 FM010300 31012G19KT P6SM VCSH SCT035